createdAt,value
2022-08-01T00:00:19.864Z,15.78
2022-08-01T00:05:47.644Z,15.79
2022-08-01T00:10:53.449Z,15.77
2022-08-01T00:16:00.291Z,15.78
2022-08-01T00:21:06.733Z,15.79
2022-08-01T00:26:13.128Z,15.79
2022-08-01T00:31:19.007Z,15.77
2022-08-01T00:36:27.320Z,15.76
2022-08-01T00:41:33.228Z,15.77
2022-08-01T00:46:39.159Z,15.77
2022-08-01T00:51:46.245Z,15.75
2022-08-01T00:56:52.454Z,15.72
2022-08-01T01:01:58.236Z,15.71
2022-08-01T01:07:11.669Z,15.75
2022-08-01T01:12:23.318Z,15.71
2022-08-01T01:17:51.068Z,15.62
2022-08-01T01:23:08.438Z,15.56
2022-08-01T01:28:21.434Z,15.51
2022-08-01T01:33:32.231Z,15.44
2022-08-01T01:38:43.040Z,15.32
2022-08-01T01:43:51.633Z,15.24
2022-08-01T01:48:59.253Z,15.16
2022-08-01T01:54:08.075Z,15.12
2022-08-01T01:59:14.016Z,15.06
2022-08-01T02:04:21.166Z,14.99
2022-08-01T02:09:30.237Z,14.95
2022-08-01T02:14:38.321Z,14.91
2022-08-01T02:19:44.733Z,14.89
2022-08-01T02:24:56.160Z,14.85
2022-08-01T02:30:06.202Z,14.81
2022-08-01T02:35:23.789Z,14.81
2022-08-01T02:40:33.909Z,14.90
2022-08-01T02:45:44.541Z,14.81
2022-08-01T02:50:52.595Z,14.66
2022-08-01T02:56:00.330Z,14.55
2022-08-01T03:01:08.857Z,14.46
2022-08-01T03:06:16.369Z,14.35
2022-08-01T03:11:24.325Z,14.24
2022-08-01T03:16:32.534Z,14.16
2022-08-01T03:21:40.213Z,14.07
2022-08-01T03:26:47.218Z,14.03
2022-08-01T03:31:54.212Z,13.95
2022-08-01T03:37:08.218Z,13.98
2022-08-01T03:42:20.081Z,14.04
2022-08-01T03:47:31.802Z,14.13
2022-08-01T03:52:42.753Z,14.17
2022-08-01T03:57:50.356Z,14.24
2022-08-01T04:02:56.871Z,14.30
2022-08-01T04:08:03.384Z,14.37
2022-08-01T04:13:09.355Z,14.40
2022-08-01T04:18:15.370Z,14.50
2022-08-01T04:23:28.611Z,14.65
2022-08-01T04:28:38.073Z,14.87
2022-08-01T04:33:48.862Z,15.00
2022-08-01T04:39:00.933Z,15.07
2022-08-01T04:44:07.958Z,15.13
2022-08-01T04:49:17.507Z,15.18
2022-08-01T04:54:23.749Z,15.26
2022-08-01T04:59:42.381Z,15.43
2022-08-01T05:04:48.650Z,15.50
2022-08-01T05:09:54.898Z,15.55
2022-08-01T05:15:00.970Z,15.67
2022-08-01T05:20:08.675Z,15.88
2022-08-01T05:25:14.671Z,16.01
2022-08-01T05:30:26.795Z,16.07
2022-08-01T05:35:47.811Z,16.08
2022-08-01T05:40:55.154Z,16.22
2022-08-01T05:46:02.169Z,19.47
2022-08-01T05:51:08.255Z,23.95
2022-08-01T05:56:14.626Z,27.36
2022-08-01T06:01:21.183Z,29.87
2022-08-01T06:06:27.420Z,31.97
2022-08-01T06:11:33.530Z,33.56
2022-08-01T06:16:40.380Z,34.62
2022-08-01T06:21:46.276Z,35.04
2022-08-01T06:26:52.238Z,35.48
2022-08-01T06:31:59.502Z,36.09
2022-08-01T06:37:06.847Z,37.14
2022-08-01T06:42:13.069Z,37.93
2022-08-01T06:47:19.154Z,38.46
2022-08-01T06:52:26.921Z,38.66
2022-08-01T06:57:34.383Z,38.83
2022-08-01T07:02:40.509Z,38.97
2022-08-01T07:07:46.918Z,39.14
2022-08-01T07:12:53.104Z,39.09
2022-08-01T07:18:02.514Z,39.43
2022-08-01T07:23:08.764Z,39.25
2022-08-01T07:28:19.289Z,39.05
2022-08-01T07:33:23.757Z,39.22
2022-08-01T07:38:29.937Z,39.51
2022-08-01T07:43:34.427Z,39.81
2022-08-01T07:48:40.391Z,39.95
2022-08-01T07:53:44.795Z,39.83
2022-08-01T07:58:50.814Z,40.10
2022-08-01T08:03:57.050Z,40.61
2022-08-01T08:09:02.976Z,40.59
2022-08-01T08:14:09.234Z,40.66
2022-08-01T08:19:15.433Z,40.38
2022-08-01T08:24:26.230Z,39.72
2022-08-01T08:29:33.831Z,38.86
2022-08-01T08:34:41.857Z,39.08
2022-08-01T08:39:48.424Z,38.97
2022-08-01T08:44:56.379Z,39.46
2022-08-01T08:50:04.872Z,39.40
2022-08-01T08:55:12.716Z,39.42
2022-08-01T09:00:19.974Z,39.22
2022-08-01T09:05:38.887Z,39.01
2022-08-01T09:10:45.555Z,39.05
2022-08-01T09:15:56.654Z,39.08
2022-08-01T09:21:13.636Z,39.13
2022-08-01T09:26:21.199Z,39.03
2022-08-01T09:31:37.986Z,38.87
2022-08-01T09:36:54.303Z,38.46
2022-08-01T09:42:02.265Z,38.36
2022-08-01T09:47:09.752Z,38.37
2022-08-01T09:52:18.122Z,38.21
2022-08-01T09:57:24.571Z,38.15
2022-08-01T10:02:34.147Z,37.78
2022-08-01T10:07:58.247Z,37.48
2022-08-01T10:13:09.957Z,37.26
2022-08-01T10:18:26.071Z,37.45
2022-08-01T10:23:40.184Z,37.31
2022-08-01T10:28:51.164Z,36.69
2022-08-01T10:34:01.333Z,36.68
2022-08-01T10:39:09.255Z,36.64
2022-08-01T10:44:17.149Z,36.32
2022-08-01T10:49:27.860Z,36.31
2022-08-01T10:54:52.658Z,36.44
2022-08-01T11:00:02.108Z,36.32
2022-08-01T11:05:14.449Z,36.04
2022-08-01T11:10:26.560Z,36.00
2022-08-01T11:15:32.905Z,35.17
2022-08-01T11:21:56.114Z,34.35
2022-08-01T11:26:28.936Z,34.54
2022-08-01T11:31:36.985Z,34.40
2022-08-01T11:36:59.468Z,34.25
2022-08-01T11:42:21.050Z,34.03
2022-08-01T11:47:50.191Z,34.14
2022-08-01T11:53:02.663Z,34.26
2022-08-01T11:58:22.447Z,34.09
2022-08-01T12:03:36.737Z,33.86
2022-08-01T12:08:46.083Z,33.47
2022-08-01T12:13:53.227Z,32.80
2022-08-01T12:19:03.934Z,32.61
2022-08-01T12:24:10.959Z,32.11
2022-08-01T12:29:34.184Z,31.89
2022-08-01T12:34:40.502Z,32.22
2022-08-01T12:39:46.911Z,32.34
2022-08-01T12:44:55.389Z,32.51
2022-08-01T12:50:03.325Z,32.45
2022-08-01T12:55:13.342Z,32.48
2022-08-01T13:00:25.060Z,32.36
2022-08-01T13:05:44.904Z,32.13
2022-08-01T13:10:51.906Z,31.90
2022-08-01T13:16:08.727Z,31.78
2022-08-01T13:21:23.539Z,31.56
2022-08-01T13:26:43.329Z,31.37
2022-08-01T13:31:50.108Z,31.04
2022-08-01T13:36:56.106Z,30.84
2022-08-01T13:42:06.561Z,30.76
2022-08-01T13:47:15.150Z,30.77
2022-08-01T13:52:25.261Z,30.01
2022-08-01T13:57:37.014Z,29.77
2022-08-01T14:02:43.281Z,29.80
2022-08-01T14:07:49.560Z,29.65
2022-08-01T14:12:56.882Z,29.37
2022-08-01T14:18:03.383Z,29.19
2022-08-01T14:23:12.358Z,28.90
2022-08-01T14:28:18.532Z,28.78
2022-08-01T14:33:24.771Z,28.45
2022-08-01T14:38:33.429Z,28.42
2022-08-01T14:43:39.769Z,28.48
2022-08-01T14:48:45.998Z,28.67
2022-08-01T14:53:53.316Z,28.66
2022-08-01T14:58:59.793Z,28.34
2022-08-01T15:04:05.878Z,27.87
2022-08-01T15:09:16.421Z,27.62
2022-08-01T15:14:41.309Z,27.36
2022-08-01T15:19:47.166Z,27.14
2022-08-01T15:24:57.494Z,27.03
2022-08-01T15:30:04.288Z,27.15
2022-08-01T15:35:13.605Z,27.21
2022-08-01T15:40:19.655Z,27.27
2022-08-01T15:50:53.246Z,27.02
2022-08-01T15:55:59.837Z,26.77
2022-08-01T16:01:05.819Z,26.43
2022-08-01T16:06:11.655Z,26.20
2022-08-01T16:11:17.965Z,26.04
2022-08-01T16:16:24.160Z,25.89
2022-08-01T16:21:30.055Z,25.69
2022-08-01T16:26:35.985Z,25.46
2022-08-01T16:31:50.616Z,25.33
2022-08-01T16:37:09.914Z,25.32
2022-08-01T16:42:18.077Z,25.32
2022-08-01T16:47:24.524Z,25.28
2022-08-01T16:52:31.777Z,25.17
2022-08-01T16:57:38.550Z,25.02
2022-08-01T17:02:45.747Z,24.88
2022-08-01T17:07:51.733Z,24.75
2022-08-01T17:12:57.646Z,24.59
2022-08-01T17:18:04.953Z,24.35
2022-08-01T17:23:10.915Z,24.15
2022-08-01T17:28:16.745Z,23.98
2022-08-01T17:33:22.830Z,23.86
2022-08-01T17:38:28.842Z,23.72
2022-08-01T17:43:34.840Z,23.57
2022-08-01T17:48:40.849Z,23.41
2022-08-01T17:53:56.128Z,23.23
2022-08-01T17:59:03.842Z,23.03
2022-08-01T18:04:13.622Z,22.80
2022-08-01T18:09:20.080Z,22.63
2022-08-01T18:14:32.626Z,22.46
2022-08-01T18:19:47.008Z,22.32
2022-08-01T18:24:55.061Z,22.18
2022-08-01T18:30:01.411Z,22.05
2022-08-01T18:35:11.999Z,21.96
2022-08-01T18:40:23.005Z,21.90
2022-08-01T18:45:29.208Z,21.86
2022-08-01T18:50:35.357Z,21.80
2022-08-01T18:55:43.202Z,21.73
2022-08-01T19:00:49.275Z,21.66
2022-08-01T19:05:55.285Z,21.54
2022-08-01T19:11:02.348Z,21.45
2022-08-01T19:16:09.247Z,21.39
2022-08-01T19:21:18.745Z,21.36
2022-08-01T19:26:28.313Z,21.33
2022-08-01T19:31:34.323Z,21.29
2022-08-01T19:36:40.923Z,21.24
2022-08-01T19:41:48.297Z,21.16
2022-08-01T19:46:54.998Z,21.08
2022-08-01T19:52:03.588Z,21.01
2022-08-01T19:57:12.818Z,20.92
2022-08-01T20:02:22.664Z,20.93
2022-08-01T20:07:30.539Z,20.95
2022-08-01T20:12:38.510Z,20.87
2022-08-01T20:17:45.600Z,20.79
2022-08-01T20:22:56.060Z,20.77
2022-08-01T20:28:00.819Z,20.73
2022-08-01T20:33:07.914Z,20.69
2022-08-01T20:38:16.864Z,20.66
2022-08-01T20:43:26.112Z,20.65
2022-08-01T20:48:32.807Z,20.63
2022-08-01T20:53:42.683Z,20.60
2022-08-01T20:59:08.828Z,20.58
2022-08-01T21:04:47.016Z,20.55
2022-08-01T21:10:01.738Z,20.52
2022-08-01T21:15:12.933Z,20.43
2022-08-01T21:20:22.451Z,20.38
2022-08-01T21:25:34.270Z,20.29
2022-08-01T21:30:41.736Z,20.29
2022-08-01T21:35:49.990Z,20.30
2022-08-01T21:40:56.766Z,20.25
2022-08-01T21:46:03.545Z,20.17
2022-08-01T21:51:23.933Z,20.09
2022-08-01T21:56:44.459Z,20.02
2022-08-01T22:02:00.119Z,19.97
2022-08-01T22:07:09.541Z,20.00
2022-08-01T22:12:18.474Z,20.03
2022-08-01T22:17:25.877Z,20.00
2022-08-01T22:22:50.623Z,19.92
2022-08-01T22:28:03.070Z,19.92
2022-08-01T22:33:17.016Z,19.91
2022-08-01T22:38:24.686Z,19.88
2022-08-01T22:43:40.280Z,19.77
2022-08-01T22:48:50.642Z,19.66
2022-08-01T22:54:03.989Z,19.58
2022-08-01T22:59:14.669Z,19.55
2022-08-01T23:04:33.816Z,19.51
2022-08-01T23:09:54.446Z,19.51
2022-08-01T23:15:02.518Z,19.54
2022-08-01T23:20:10.090Z,19.57
2022-08-01T23:25:16.993Z,19.55
2022-08-01T23:30:25.912Z,19.51
2022-08-01T23:35:38.168Z,19.48
2022-08-01T23:40:44.923Z,19.41
2022-08-01T23:46:04.510Z,19.37
2022-08-01T23:51:17.273Z,19.22
2022-08-01T23:56:30.101Z,19.11
